createdAt,value
2023-05-23T00:01:49.775Z,10.78
2023-05-23T00:06:51.595Z,10.74
2023-05-23T00:11:53.651Z,10.64
2023-05-23T00:16:55.757Z,10.49
2023-05-23T00:21:58.562Z,10.32
2023-05-23T00:27:01.205Z,10.13
2023-05-23T00:32:02.993Z,9.99
2023-05-23T00:37:05.450Z,9.91
2023-05-23T00:42:07.877Z,9.86
2023-05-23T00:47:11.229Z,9.81
2023-05-23T00:52:13.000Z,9.73
2023-05-23T00:57:14.929Z,9.60
2023-05-23T01:02:16.673Z,9.44
2023-05-23T01:07:18.353Z,9.32
2023-05-23T01:12:54.808Z,9.26
2023-05-23T01:18:08.487Z,9.30
2023-05-23T01:23:23.902Z,9.32
2023-05-23T01:28:33.529Z,9.27
2023-05-23T01:33:36.460Z,9.20
2023-05-23T01:38:38.348Z,9.09
2023-05-23T01:43:40.741Z,9.01
2023-05-23T01:48:43.314Z,9.02
2023-05-23T01:53:45.625Z,9.03
2023-05-23T01:58:47.908Z,9.00
2023-05-23T02:03:50.094Z,8.96
2023-05-23T02:08:51.803Z,8.91
2023-05-23T02:13:53.497Z,8.88
2023-05-23T02:18:56.528Z,8.90
2023-05-23T02:23:58.406Z,8.93
2023-05-23T02:29:00.176Z,8.87
2023-05-23T02:34:01.952Z,8.77
2023-05-23T02:39:04.916Z,8.67
2023-05-23T02:44:06.837Z,8.59
2023-05-23T02:49:09.039Z,8.58
2023-05-23T02:54:10.804Z,8.63
2023-05-23T02:59:13.859Z,8.68
2023-05-23T03:04:16.279Z,8.63
2023-05-23T03:09:18.121Z,8.63
2023-05-23T03:14:19.987Z,8.63
2023-05-23T03:19:21.866Z,8.70
2023-05-23T03:24:23.659Z,8.82
2023-05-23T03:29:25.418Z,8.98
2023-05-23T03:34:27.348Z,9.14
2023-05-23T03:39:29.107Z,9.29
2023-05-23T03:44:32.032Z,9.43
2023-05-23T03:49:33.936Z,9.56
2023-05-23T03:54:37.239Z,9.71
2023-05-23T03:59:39.422Z,9.90
2023-05-23T04:04:43.384Z,10.12
2023-05-23T04:09:45.390Z,10.37
2023-05-23T04:14:48.639Z,10.62
2023-05-23T04:19:51.618Z,10.86
2023-05-23T04:24:53.835Z,11.06
2023-05-23T04:29:58.278Z,11.24
2023-05-23T04:35:02.307Z,11.45
2023-05-23T04:40:07.370Z,11.69
2023-05-23T04:45:21.682Z,11.97
2023-05-23T04:50:36.082Z,12.28
2023-05-23T04:55:39.237Z,12.58
2023-05-23T05:00:45.565Z,12.90
2023-05-23T05:05:49.260Z,13.25
2023-05-23T05:10:51.266Z,13.59
2023-05-23T05:15:54.908Z,13.89
2023-05-23T05:20:58.701Z,14.21
2023-05-23T05:26:00.852Z,14.58
2023-05-23T05:31:05.227Z,14.89
2023-05-23T05:36:09.321Z,15.20
2023-05-23T05:41:11.601Z,15.56
2023-05-23T05:46:21.730Z,16.00
2023-05-23T05:51:24.540Z,16.53
2023-05-23T05:56:27.956Z,16.98
2023-05-23T06:01:30.936Z,17.41
2023-05-23T06:06:33.030Z,17.83
2023-05-23T06:11:35.314Z,18.18
2023-05-23T06:16:37.343Z,18.48
2023-05-23T06:21:39.559Z,18.83
2023-05-23T06:26:42.072Z,19.12
2023-05-23T06:31:44.110Z,19.39
2023-05-23T06:36:46.994Z,19.64
2023-05-23T06:41:48.813Z,19.85
2023-05-23T06:46:50.606Z,20.08
2023-05-23T06:51:52.699Z,20.24
2023-05-23T06:56:54.599Z,20.46
2023-05-23T07:01:56.621Z,20.62
2023-05-23T07:06:59.801Z,20.83
2023-05-23T07:12:02.529Z,21.03
2023-05-23T07:17:04.834Z,21.28
2023-05-23T07:22:08.467Z,21.46
2023-05-23T07:27:13.637Z,21.74
2023-05-23T07:32:15.660Z,21.95
2023-05-23T07:37:18.869Z,22.04
2023-05-23T07:42:21.012Z,21.99
2023-05-23T07:47:24.348Z,22.06
2023-05-23T07:52:26.646Z,22.08
2023-05-23T07:57:29.352Z,22.00
2023-05-23T08:02:31.532Z,21.97
2023-05-23T08:07:33.531Z,21.89
2023-05-23T08:12:37.790Z,22.03
2023-05-23T08:17:46.452Z,22.21
2023-05-23T08:22:48.314Z,22.28
2023-05-23T08:27:50.364Z,22.44
2023-05-23T08:33:09.750Z,22.48
2023-05-23T08:38:12.254Z,22.56
2023-05-23T08:43:22.906Z,22.64
2023-05-23T08:48:27.067Z,22.74
2023-05-23T08:53:32.157Z,22.89
2023-05-23T08:58:42.160Z,23.00
2023-05-23T09:03:44.634Z,23.14
2023-05-23T09:08:57.161Z,23.28
2023-05-23T09:13:59.137Z,23.46
2023-05-23T09:19:11.505Z,23.66
2023-05-23T09:24:13.644Z,23.90
2023-05-23T09:29:19.934Z,24.18
2023-05-23T09:34:21.774Z,24.37
2023-05-23T09:39:24.872Z,24.51
2023-05-23T09:44:26.812Z,24.49
2023-05-23T09:49:28.660Z,24.76
2023-05-23T09:54:30.745Z,24.99
2023-05-23T09:59:38.589Z,25.00
2023-05-23T10:04:41.807Z,25.19
2023-05-23T10:09:52.269Z,25.30
2023-05-23T10:14:58.222Z,25.48
2023-05-23T10:20:12.329Z,25.67
2023-05-23T10:25:15.547Z,25.69
2023-05-23T10:30:18.107Z,25.68
2023-05-23T10:35:48.021Z,25.71
2023-05-23T10:40:55.518Z,25.85
2023-05-23T10:45:57.744Z,25.98
2023-05-23T10:51:14.776Z,26.22
2023-05-23T10:56:24.330Z,26.61
2023-05-23T11:01:27.363Z,26.80
2023-05-23T11:06:33.895Z,27.00
2023-05-23T11:11:53.356Z,27.02
2023-05-23T11:16:55.127Z,27.25
2023-05-23T11:22:06.162Z,27.33
2023-05-23T11:27:12.504Z,27.20
2023-05-23T11:32:17.406Z,27.10
2023-05-23T11:37:20.999Z,27.08
2023-05-23T11:42:24.123Z,27.05
2023-05-23T11:47:26.101Z,26.81
2023-05-23T11:52:32.518Z,25.62
2023-05-23T11:57:34.289Z,23.81
2023-05-23T12:02:43.369Z,22.57
2023-05-23T12:07:49.737Z,21.30
2023-05-23T12:12:52.111Z,20.12
2023-05-23T12:17:55.882Z,18.92
2023-05-23T12:22:57.748Z,17.84
2023-05-23T12:28:00.569Z,16.95
2023-05-23T12:33:08.551Z,16.47
2023-05-23T12:38:14.769Z,16.16
2023-05-23T12:43:16.699Z,16.05
2023-05-23T12:48:18.498Z,16.09
2023-05-23T12:53:20.430Z,16.20
2023-05-23T12:58:22.393Z,16.33
2023-05-23T13:03:25.017Z,16.56
2023-05-23T13:08:30.156Z,16.96
2023-05-23T13:13:34.886Z,17.53
2023-05-23T13:18:38.138Z,18.15
2023-05-23T13:24:04.485Z,18.61
2023-05-23T13:29:06.357Z,19.09
2023-05-23T13:34:08.055Z,19.37
2023-05-23T13:39:09.715Z,19.43
2023-05-23T13:44:11.438Z,19.49
2023-05-23T13:49:13.222Z,19.65
2023-05-23T13:54:15.088Z,19.70
2023-05-23T13:59:21.145Z,19.86
2023-05-23T14:04:23.329Z,20.11
2023-05-23T14:09:25.247Z,20.36
2023-05-23T14:14:27.105Z,20.48
2023-05-23T14:19:29.204Z,20.54
2023-05-23T14:24:31.127Z,20.59
2023-05-23T14:29:33.283Z,20.63
2023-05-23T14:34:36.109Z,20.64
2023-05-23T14:39:37.994Z,20.63
2023-05-23T14:44:39.729Z,20.65
2023-05-23T14:49:41.629Z,20.74
2023-05-23T14:54:46.367Z,20.84
2023-05-23T14:59:48.509Z,20.92
2023-05-23T15:04:50.325Z,21.01
2023-05-23T15:09:52.636Z,21.09
2023-05-23T15:15:02.828Z,20.89
2023-05-23T15:20:07.249Z,20.68
2023-05-23T15:25:10.711Z,20.64
2023-05-23T15:30:13.323Z,20.64
2023-05-23T15:35:21.677Z,20.67
2023-05-23T15:40:23.465Z,20.79
2023-05-23T15:45:25.361Z,20.81
2023-05-23T15:50:27.077Z,20.69
2023-05-23T15:55:28.877Z,20.52
2023-05-23T16:00:30.665Z,20.45
2023-05-23T16:05:32.395Z,20.29
2023-05-23T16:10:34.106Z,20.20
2023-05-23T16:15:35.808Z,20.21
2023-05-23T16:20:37.612Z,20.17
2023-05-23T16:25:39.613Z,20.23
2023-05-23T16:30:41.414Z,20.26
2023-05-23T16:35:43.309Z,20.21
2023-05-23T16:40:45.454Z,20.15
2023-05-23T16:45:47.526Z,20.07
2023-05-23T16:50:49.569Z,20.03
2023-05-23T16:55:51.378Z,20.05
2023-05-23T17:00:53.527Z,19.94
2023-05-23T17:05:56.029Z,19.79
2023-05-23T17:10:57.782Z,19.64
2023-05-23T17:15:59.535Z,19.57
2023-05-23T17:21:01.527Z,19.57
2023-05-23T17:26:03.283Z,19.58
2023-05-23T17:31:05.144Z,19.52
2023-05-23T17:36:07.003Z,19.34
2023-05-23T17:41:08.726Z,19.29
2023-05-23T17:46:10.799Z,19.24
2023-05-23T17:51:13.045Z,19.12
2023-05-23T17:56:14.855Z,18.95
2023-05-23T18:01:16.878Z,18.79
2023-05-23T18:06:18.931Z,18.65
2023-05-23T18:11:22.184Z,18.56
2023-05-23T18:16:23.964Z,18.47
2023-05-23T18:21:26.894Z,18.37
2023-05-23T18:26:28.901Z,18.22
2023-05-23T18:31:30.628Z,18.09
2023-05-23T18:36:33.035Z,17.98
2023-05-23T18:41:34.885Z,17.90
2023-05-23T18:46:36.968Z,17.81
2023-05-23T18:51:38.935Z,17.70
2023-05-23T18:56:40.676Z,17.64
2023-05-23T19:01:42.703Z,17.58
2023-05-23T19:06:45.682Z,17.52
2023-05-23T19:11:47.410Z,17.41
2023-05-23T19:16:49.493Z,17.27
2023-05-23T19:21:51.503Z,17.13
2023-05-23T19:26:53.953Z,17.05
2023-05-23T19:31:55.910Z,17.02
2023-05-23T19:36:58.054Z,17.03
2023-05-23T19:41:59.795Z,17.00
2023-05-23T19:47:01.501Z,16.95
2023-05-23T19:52:03.818Z,16.90
2023-05-23T19:57:05.922Z,16.86
2023-05-23T20:02:07.780Z,16.83
2023-05-23T20:07:10.007Z,16.79
2023-05-23T20:12:11.846Z,16.73
2023-05-23T20:17:13.750Z,16.69
2023-05-23T20:22:15.999Z,16.64
2023-05-23T20:27:17.884Z,16.65
2023-05-23T20:32:19.611Z,16.67
2023-05-23T20:37:21.555Z,16.67
2023-05-23T20:42:23.433Z,16.61
2023-05-23T20:47:25.868Z,16.57
2023-05-23T20:52:27.865Z,16.54
2023-05-23T20:57:30.222Z,16.53
2023-05-23T21:02:32.356Z,16.53
2023-05-23T21:07:35.438Z,16.51
2023-05-23T21:12:37.948Z,16.46
2023-05-23T21:17:42.720Z,16.42
2023-05-23T21:22:44.457Z,16.38
2023-05-23T21:27:46.226Z,16.38
2023-05-23T21:32:47.939Z,16.37
2023-05-23T21:37:49.845Z,16.32
2023-05-23T21:42:52.280Z,16.23
2023-05-23T21:47:55.076Z,16.12
2023-05-23T21:52:58.415Z,16.10
2023-05-23T21:58:00.183Z,16.15
2023-05-23T22:03:02.093Z,16.21
2023-05-23T22:08:04.095Z,16.23
2023-05-23T22:13:07.450Z,16.19
2023-05-23T22:18:09.166Z,16.14
2023-05-23T22:23:16.593Z,16.12
2023-05-23T22:28:18.327Z,16.15
2023-05-23T22:33:20.185Z,16.22
2023-05-23T22:38:21.966Z,16.22
2023-05-23T22:43:23.937Z,16.17
2023-05-23T22:48:26.100Z,16.10
2023-05-23T22:53:28.847Z,16.05
2023-05-23T22:58:30.688Z,16.04
2023-05-23T23:03:32.689Z,16.04
2023-05-23T23:08:36.098Z,16.00
2023-05-23T23:13:42.049Z,15.95
2023-05-23T23:18:43.804Z,15.91
2023-05-23T23:23:45.538Z,15.91
2023-05-23T23:28:47.441Z,15.86
2023-05-23T23:33:49.190Z,15.79
2023-05-23T23:38:51.628Z,15.71
2023-05-23T23:43:54.501Z,15.64
2023-05-23T23:48:58.693Z,15.61
2023-05-23T23:54:00.658Z,15.56
2023-05-23T23:59:02.451Z,15.50
